Airport View

Enter AWOS ICAO identifier for current METAR.

ex. KFNL

KBIE 191835Z AUTO 34003KT 10SM BKN019 22/18 A2980 RMK AO2 T02200175

19 Jun 2019 18:46

Frequency: 125.325

Phone: 402-228-3229

Other Area AWOS: KMYZ - KLNK - KHJH - KAFK

TAF KLNK 191722Z 1918/2018 VRB06KT P6SM BKN030 FM200300 VRB03KT P6SM SCT200 PROB30 2011/2014 4SM -SHRA BR OVC025 FM201400 17005KT P6SM SCT200